createdAt,value
2019-05-09T00:02:13.801Z,11.81
2019-05-09T00:04:44.121Z,12.02
2019-05-09T00:07:14.862Z,12.05
2019-05-09T00:09:44.825Z,11.91
2019-05-09T00:12:14.681Z,11.89
2019-05-09T00:14:44.599Z,12.02
2019-05-09T00:17:14.633Z,12.08
2019-05-09T00:19:44.325Z,12.06
2019-05-09T00:22:14.244Z,12.06
2019-05-09T00:24:44.738Z,12.10
2019-05-09T00:27:14.793Z,12.04
2019-05-09T00:29:47.057Z,12.06
2019-05-09T00:32:35.645Z,12.15
2019-05-09T00:35:18.421Z,11.74
2019-05-09T00:37:55.724Z,11.68
2019-05-09T00:40:25.909Z,11.75
2019-05-09T00:42:55.988Z,12.03
2019-05-09T00:45:43.978Z,12.16
2019-05-09T00:48:15.835Z,12.27
2019-05-09T00:50:45.695Z,12.36
2019-05-09T00:53:15.473Z,12.53
2019-05-09T00:55:45.321Z,12.60
2019-05-09T00:58:15.255Z,12.61
2019-05-09T01:00:45.999Z,12.68
2019-05-09T01:03:16.948Z,12.73
2019-05-09T01:05:47.563Z,12.76
2019-05-09T01:08:17.276Z,12.64
2019-05-09T01:10:47.254Z,12.73
2019-05-09T01:13:17.012Z,12.80
2019-05-09T01:15:47.843Z,12.85
2019-05-09T01:18:17.612Z,12.74
2019-05-09T01:20:47.395Z,12.81
2019-05-09T01:23:17.293Z,12.83
2019-05-09T01:25:47.254Z,12.72
2019-05-09T01:28:16.923Z,12.71
2019-05-09T01:30:46.771Z,12.77
2019-05-09T01:33:26.017Z,12.61
2019-05-09T01:35:55.649Z,12.76
2019-05-09T01:38:25.402Z,12.80
2019-05-09T01:40:55.420Z,12.89
2019-05-09T01:43:25.230Z,12.92
2019-05-09T01:45:55.106Z,12.96
2019-05-09T01:48:24.890Z,12.95
2019-05-09T01:50:54.908Z,12.98
2019-05-09T01:53:29.863Z,12.90
2019-05-09T01:56:00.085Z,12.93
2019-05-09T01:58:34.410Z,12.96
2019-05-09T02:01:07.136Z,12.75
2019-05-09T02:03:36.973Z,12.71
2019-05-09T02:06:07.204Z,12.60
2019-05-09T02:08:37.156Z,12.68
2019-05-09T02:11:07.228Z,12.56
2019-05-09T02:13:37.216Z,12.55
2019-05-09T02:16:33.917Z,12.52
2019-05-09T02:19:26.268Z,12.25
2019-05-09T02:21:56.063Z,11.97
2019-05-09T02:24:25.861Z,12.00
2019-05-09T02:26:55.828Z,11.81
2019-05-09T02:29:25.761Z,11.44
2019-05-09T02:31:55.402Z,11.53
2019-05-09T02:34:25.326Z,11.60
2019-05-09T02:36:58.719Z,11.47
2019-05-09T02:39:29.469Z,11.35
2019-05-09T02:42:08.438Z,11.40
2019-05-09T02:44:30.973Z,11.39
2019-05-09T02:47:09.420Z,11.48
2019-05-09T02:49:39.367Z,11.51
2019-05-09T02:52:09.249Z,11.38
2019-05-09T02:54:39.457Z,11.23
2019-05-09T02:57:09.745Z,11.17
2019-05-09T03:00:02.043Z,11.15
2019-05-09T03:02:42.048Z,11.24
2019-05-09T03:05:13.579Z,11.38
2019-05-09T03:07:52.435Z,11.44
2019-05-09T03:10:23.189Z,11.44
2019-05-09T03:12:53.276Z,11.30
2019-05-09T03:15:23.299Z,10.93
2019-05-09T03:17:54.580Z,10.71
2019-05-09T03:20:42.289Z,10.57
2019-05-09T03:23:12.094Z,10.54
2019-05-09T03:25:42.008Z,10.61
2019-05-09T03:28:39.767Z,10.74
2019-05-09T03:31:10.274Z,10.71
2019-05-09T03:33:41.002Z,10.54
2019-05-09T03:36:12.108Z,10.52
2019-05-09T03:38:42.000Z,10.78
2019-05-09T03:41:11.900Z,10.91
2019-05-09T03:43:41.984Z,10.86
2019-05-09T03:46:19.363Z,10.67
2019-05-09T03:48:52.155Z,10.54
2019-05-09T03:51:22.145Z,10.77
2019-05-09T03:53:52.059Z,10.94
2019-05-09T03:56:27.430Z,10.80
2019-05-09T03:58:57.933Z,10.81
2019-05-09T04:01:28.194Z,10.89
2019-05-09T04:03:58.500Z,10.85
2019-05-09T04:06:28.507Z,10.78
2019-05-09T04:08:59.676Z,10.94
2019-05-09T04:11:29.550Z,11.21
2019-05-09T04:14:03.591Z,11.37
2019-05-09T04:16:33.372Z,11.51
2019-05-09T04:19:04.630Z,11.68
2019-05-09T04:21:34.513Z,11.87
2019-05-09T04:24:04.155Z,12.14
2019-05-09T04:26:48.271Z,12.29
2019-05-09T04:29:18.394Z,12.29
2019-05-09T04:31:48.499Z,12.31
2019-05-09T04:34:19.600Z,12.35
2019-05-09T04:36:49.397Z,12.33
2019-05-09T04:39:23.710Z,12.17
2019-05-09T04:41:54.997Z,11.94
2019-05-09T04:44:42.704Z,11.36
2019-05-09T04:47:12.644Z,11.29
2019-05-09T04:49:45.099Z,11.26
2019-05-09T04:52:14.151Z,11.35
2019-05-09T04:54:43.800Z,11.63
2019-05-09T04:57:13.608Z,12.04
2019-05-09T04:59:43.501Z,12.12
2019-05-09T05:02:48.485Z,12.55
2019-05-09T05:05:18.527Z,12.35
2019-05-09T05:07:48.318Z,12.52
2019-05-09T05:10:18.576Z,12.90
2019-05-09T05:12:48.839Z,13.10
2019-05-09T05:15:20.477Z,13.31
2019-05-09T05:17:50.036Z,13.54
2019-05-09T05:20:22.988Z,13.66
2019-05-09T05:22:58.235Z,13.85
2019-05-09T05:25:28.237Z,14.09
2019-05-09T05:27:58.285Z,14.27
2019-05-09T05:30:28.546Z,14.37
2019-05-09T05:33:18.480Z,14.57
2019-05-09T05:35:53.811Z,14.68
2019-05-09T05:38:23.566Z,14.66
2019-05-09T05:40:53.405Z,14.50
2019-05-09T05:43:37.878Z,14.52
2019-05-09T05:46:07.688Z,14.70
2019-05-09T05:48:39.116Z,14.87
2019-05-09T05:51:08.903Z,14.04
2019-05-09T05:53:38.761Z,13.76
2019-05-09T05:56:08.725Z,14.12
2019-05-09T05:58:38.768Z,14.58
2019-05-09T06:01:08.528Z,14.72
2019-05-09T06:03:38.415Z,14.78
2019-05-09T06:06:08.924Z,14.89
2019-05-09T06:08:38.916Z,14.81
2019-05-09T06:11:12.128Z,14.80
2019-05-09T06:13:53.272Z,15.12
2019-05-09T06:16:11.767Z,15.31
2019-05-09T06:18:41.635Z,15.45
2019-05-09T06:21:11.527Z,15.70
2019-05-09T06:23:41.646Z,15.82
2019-05-09T06:26:11.515Z,15.45
2019-05-09T06:29:08.043Z,15.55
2019-05-09T06:31:40.534Z,15.45
2019-05-09T06:34:48.186Z,15.25
2019-05-09T06:38:01.272Z,14.94
2019-05-09T06:40:59.128Z,15.31
2019-05-09T06:44:28.249Z,15.53
2019-05-09T06:47:48.503Z,15.92
2019-05-09T06:53:58.387Z,16.18
2019-05-09T06:57:07.807Z,16.28
2019-05-09T07:00:09.661Z,15.52
2019-05-09T07:03:08.110Z,15.94
2019-05-09T07:06:28.309Z,16.36
2019-05-09T07:09:43.970Z,16.56
2019-05-09T07:12:41.541Z,16.68
2019-05-09T07:18:52.290Z,16.73
2019-05-09T07:22:27.854Z,15.76
2019-05-09T07:25:59.653Z,16.00
2019-05-09T07:28:51.088Z,15.55
2019-05-09T07:31:39.126Z,16.18
2019-05-09T07:34:54.072Z,16.09
2019-05-09T07:41:35.202Z,16.58
2019-05-09T07:44:52.029Z,16.73
2019-05-09T07:47:58.318Z,16.86
2019-05-09T07:51:13.736Z,17.18
2019-05-09T07:54:25.216Z,17.46
2019-05-09T07:57:29.689Z,17.65
2019-05-09T08:03:44.812Z,17.80
2019-05-09T08:06:48.608Z,17.61
2019-05-09T08:09:58.851Z,17.59
2019-05-09T08:12:58.555Z,17.20
2019-05-09T08:15:53.337Z,16.59
2019-05-09T08:19:03.815Z,15.99
2019-05-09T08:21:57.497Z,16.17
2019-05-09T08:27:50.250Z,17.54
2019-05-09T08:30:48.418Z,17.36
2019-05-09T08:33:55.406Z,17.07
2019-05-09T08:37:03.044Z,16.57
2019-05-09T08:40:10.606Z,16.24
2019-05-09T08:46:34.875Z,17.89
2019-05-09T08:50:11.569Z,17.52
2019-05-09T08:53:19.319Z,17.99
2019-05-09T08:56:21.056Z,18.46
2019-05-09T08:59:11.247Z,18.66
2019-05-09T09:02:14.066Z,18.94
2019-05-09T09:07:57.596Z,18.72
2019-05-09T09:11:04.624Z,18.66
2019-05-09T09:14:14.975Z,18.47
2019-05-09T09:17:24.486Z,18.39
2019-05-09T09:20:28.849Z,18.20
2019-05-09T09:23:44.129Z,18.17
2019-05-09T09:26:11.748Z,18.03
2019-05-09T09:29:25.228Z,17.97
2019-05-09T09:35:55.061Z,17.32
2019-05-09T09:38:50.775Z,17.49
2019-05-09T09:41:58.821Z,17.95
2019-05-09T09:44:53.386Z,18.10
2019-05-09T09:47:33.381Z,18.16
2019-05-09T09:50:42.760Z,18.20
2019-05-09T09:53:38.601Z,18.02
2019-05-09T09:56:34.645Z,18.23
2019-05-09T09:59:32.408Z,18.10
2019-05-09T10:02:31.883Z,18.17
2019-05-09T10:05:23.361Z,18.45
2019-05-09T10:11:31.755Z,18.61
2019-05-09T10:14:38.641Z,19.12
2019-05-09T10:18:04.029Z,19.01
2019-05-09T10:21:35.428Z,18.95
2019-05-09T10:24:31.953Z,18.62
2019-05-09T10:27:13.987Z,19.00
2019-05-09T10:33:52.526Z,18.63
2019-05-09T10:36:59.207Z,18.80
2019-05-09T10:40:12.644Z,18.82
2019-05-09T10:43:38.617Z,18.89
2019-05-09T10:46:22.769Z,19.05
2019-05-09T10:48:58.713Z,19.11
2019-05-09T10:51:28.764Z,18.79
2019-05-09T10:53:58.971Z,18.72
2019-05-09T10:56:29.053Z,18.44
2019-05-09T10:58:58.971Z,18.51
2019-05-09T11:01:29.620Z,18.37
2019-05-09T11:03:59.662Z,18.54
2019-05-09T11:06:29.608Z,18.54
2019-05-09T11:08:59.926Z,18.54
2019-05-09T11:11:29.729Z,18.88
2019-05-09T11:14:01.082Z,18.72
2019-05-09T11:16:42.042Z,18.91
2019-05-09T11:19:02.403Z,18.91
2019-05-09T11:21:33.577Z,18.98
2019-05-09T11:24:03.450Z,18.95
2019-05-09T11:26:33.477Z,19.21
2019-05-09T11:29:03.272Z,19.21
2019-05-09T11:31:33.125Z,19.16
2019-05-09T11:34:03.019Z,19.22
2019-05-09T11:36:32.958Z,19.36
2019-05-09T11:39:04.747Z,19.32
2019-05-09T11:41:34.669Z,19.35
2019-05-09T11:44:04.527Z,19.44
2019-05-09T11:46:34.382Z,19.20
2019-05-09T11:49:04.261Z,19.11
2019-05-09T11:51:34.198Z,19.10
2019-05-09T11:54:05.182Z,19.08
2019-05-09T11:56:34.950Z,19.03
2019-05-09T11:59:04.767Z,19.32
2019-05-09T12:01:34.531Z,19.50
2019-05-09T12:04:04.421Z,19.79
2019-05-09T12:06:34.216Z,19.79
2019-05-09T12:09:08.421Z,19.87
2019-05-09T12:11:41.250Z,19.87
2019-05-09T12:14:09.175Z,19.94
2019-05-09T12:16:39.108Z,20.28
2019-05-09T12:19:09.062Z,20.63
2019-05-09T12:21:47.087Z,20.93
2019-05-09T12:24:10.399Z,21.53
2019-05-09T12:26:40.277Z,22.00
2019-05-09T12:29:11.160Z,21.69
2019-05-09T12:31:40.947Z,21.74
2019-05-09T12:34:12.004Z,21.77
2019-05-09T12:36:41.822Z,21.88
2019-05-09T12:39:11.842Z,22.22
2019-05-09T12:41:41.809Z,21.99
2019-05-09T12:44:11.569Z,22.70
2019-05-09T12:46:41.498Z,22.60
2019-05-09T12:49:11.176Z,23.07
2019-05-09T12:51:40.974Z,23.41
2019-05-09T12:54:10.916Z,23.59
2019-05-09T12:56:40.700Z,23.56
2019-05-09T12:59:10.874Z,23.36
2019-05-09T13:01:41.615Z,23.89
2019-05-09T13:04:11.412Z,24.13
2019-05-09T13:06:41.306Z,24.41
2019-05-09T13:09:11.513Z,23.57
2019-05-09T13:11:41.385Z,23.61
2019-05-09T13:14:11.300Z,23.12
2019-05-09T13:17:00.046Z,23.31
2019-05-09T13:19:47.784Z,22.97
2019-05-09T13:22:18.535Z,23.67
2019-05-09T13:24:48.325Z,23.38
2019-05-09T13:27:18.988Z,23.15
2019-05-09T13:29:49.619Z,23.53
2019-05-09T13:32:19.521Z,23.10
2019-05-09T13:34:49.290Z,23.37
2019-05-09T13:37:19.320Z,22.93
2019-05-09T13:39:49.176Z,23.60
2019-05-09T13:42:19.797Z,23.81
2019-05-09T13:44:49.881Z,24.02
2019-05-09T13:47:19.764Z,23.74
2019-05-09T13:49:50.074Z,24.18
2019-05-09T13:52:20.012Z,24.56
2019-05-09T13:54:49.839Z,24.58
2019-05-09T13:57:20.809Z,23.86
2019-05-09T13:59:50.571Z,24.38
2019-05-09T14:02:20.468Z,24.60
2019-05-09T14:04:50.271Z,24.95
2019-05-09T14:07:20.356Z,24.09
2019-05-09T14:09:50.285Z,25.24
2019-05-09T14:12:20.150Z,24.91
2019-05-09T14:14:50.006Z,25.49
2019-05-09T14:17:39.504Z,25.25
2019-05-09T14:19:51.744Z,24.43
2019-05-09T14:22:21.491Z,24.28
2019-05-09T14:24:51.319Z,24.61
2019-05-09T14:27:22.391Z,24.14
2019-05-09T14:29:52.476Z,23.80
2019-05-09T14:32:22.326Z,23.53
2019-05-09T14:34:52.207Z,24.12
2019-05-09T14:37:22.367Z,24.23
2019-05-09T14:39:58.438Z,24.32
2019-05-09T14:42:23.906Z,24.73
2019-05-09T14:44:53.772Z,24.26
2019-05-09T14:47:23.736Z,23.99
2019-05-09T14:49:53.600Z,24.05
2019-05-09T14:52:23.471Z,23.78
2019-05-09T14:54:53.176Z,23.09
2019-05-09T14:57:23.122Z,22.25
2019-05-09T14:59:53.003Z,22.03
2019-05-09T15:02:22.919Z,21.90
2019-05-09T15:04:53.920Z,21.57
2019-05-09T15:07:23.936Z,21.44
2019-05-09T15:09:56.211Z,20.92
2019-05-09T15:12:25.198Z,20.56
2019-05-09T15:14:54.979Z,20.44
2019-05-09T15:17:27.662Z,20.16
2019-05-09T15:20:00.657Z,19.86
2019-05-09T15:22:28.828Z,19.86
2019-05-09T15:24:59.143Z,19.55
2019-05-09T15:27:29.045Z,19.60
2019-05-09T15:29:58.975Z,19.34
2019-05-09T15:32:28.948Z,19.30
2019-05-09T15:34:58.819Z,19.18
2019-05-09T15:37:28.817Z,19.06
2019-05-09T15:39:59.802Z,18.95
2019-05-09T15:42:30.605Z,18.58
2019-05-09T15:45:00.637Z,18.48
2019-05-09T15:47:34.868Z,18.75
2019-05-09T15:50:16.545Z,19.20
2019-05-09T15:52:38.247Z,18.92
2019-05-09T15:55:09.928Z,18.57
2019-05-09T15:57:39.637Z,18.46
2019-05-09T16:00:11.109Z,18.29
2019-05-09T16:02:41.045Z,18.19
2019-05-09T16:05:11.091Z,18.04
2019-05-09T16:07:40.727Z,17.98
2019-05-09T16:10:10.854Z,18.02
2019-05-09T16:12:40.637Z,17.82
2019-05-09T16:15:10.908Z,17.74
2019-05-09T16:17:40.723Z,17.77
2019-05-09T16:20:10.707Z,17.64
2019-05-09T16:22:40.661Z,17.53
2019-05-09T16:25:10.852Z,17.56
2019-05-09T16:27:40.690Z,17.42
2019-05-09T16:30:11.003Z,17.33
2019-05-09T16:32:42.287Z,17.41
2019-05-09T16:35:12.174Z,17.28
2019-05-09T16:38:05.965Z,17.14
2019-05-09T16:40:15.110Z,16.95
2019-05-09T16:42:44.791Z,17.00
2019-05-09T16:45:15.335Z,17.01
2019-05-09T16:47:48.577Z,17.01
2019-05-09T16:50:18.926Z,16.94
2019-05-09T16:52:49.063Z,16.98
2019-05-09T16:55:30.973Z,16.92
2019-05-09T16:57:57.403Z,16.95
2019-05-09T17:00:40.325Z,16.93
2019-05-09T17:03:10.164Z,16.95
2019-05-09T17:05:39.933Z,16.84
2019-05-09T17:08:09.713Z,16.90
2019-05-09T17:10:39.938Z,16.88
2019-05-09T17:13:09.818Z,16.94
2019-05-09T17:15:41.109Z,16.96
2019-05-09T17:18:10.870Z,17.00
2019-05-09T17:21:14.725Z,16.98
2019-05-09T17:23:31.381Z,16.91
2019-05-09T17:26:01.603Z,16.88
2019-05-09T17:28:32.806Z,16.91
2019-05-09T17:31:02.566Z,16.94
2019-05-09T17:33:32.805Z,16.97
2019-05-09T17:36:02.751Z,16.88
2019-05-09T17:38:32.426Z,16.83
2019-05-09T17:41:02.360Z,16.75
2019-05-09T17:43:32.319Z,16.71
2019-05-09T17:46:02.489Z,16.64
2019-05-09T17:48:33.558Z,16.49
2019-05-09T17:51:03.455Z,16.22
2019-05-09T17:53:34.171Z,16.08
2019-05-09T17:56:04.173Z,15.81
2019-05-09T17:58:33.919Z,15.65
2019-05-09T18:01:03.737Z,15.74
2019-05-09T18:03:33.627Z,15.66
2019-05-09T18:06:03.475Z,15.63
2019-05-09T18:08:33.493Z,15.30
2019-05-09T18:11:03.464Z,15.08
2019-05-09T18:13:33.731Z,15.18
2019-05-09T18:16:03.449Z,15.15
2019-05-09T18:18:33.522Z,15.29
2019-05-09T18:21:03.264Z,15.44
2019-05-09T18:23:33.071Z,15.40
2019-05-09T18:26:04.242Z,15.16
2019-05-09T18:28:34.898Z,14.86
2019-05-09T18:31:04.927Z,15.11
2019-05-09T18:33:41.228Z,14.92
2019-05-09T18:36:11.248Z,14.88
2019-05-09T18:38:41.096Z,15.17
2019-05-09T18:41:10.920Z,15.07
2019-05-09T18:43:41.887Z,15.22
2019-05-09T18:46:11.645Z,15.36
2019-05-09T18:48:42.649Z,15.41
2019-05-09T18:51:12.483Z,15.35
2019-05-09T18:53:42.439Z,15.16
2019-05-09T18:56:12.255Z,15.34
2019-05-09T18:58:43.634Z,15.37
2019-05-09T19:01:13.513Z,15.32
2019-05-09T19:03:43.323Z,14.99
2019-05-09T19:06:13.231Z,15.33
2019-05-09T19:08:43.106Z,15.53
2019-05-09T19:11:13.142Z,15.55
2019-05-09T19:13:43.051Z,15.58
2019-05-09T19:16:40.017Z,15.43
2019-05-09T19:19:24.843Z,15.33
2019-05-09T19:22:04.132Z,15.52
2019-05-09T19:24:30.588Z,15.43
2019-05-09T19:27:00.405Z,15.44
2019-05-09T19:29:30.258Z,15.51
2019-05-09T19:32:00.048Z,15.70
2019-05-09T19:34:29.971Z,15.74
2019-05-09T19:37:00.024Z,15.87
2019-05-09T19:39:29.792Z,15.93
2019-05-09T19:41:59.688Z,15.96
2019-05-09T19:44:29.669Z,15.94
2019-05-09T19:47:01.637Z,15.88
2019-05-09T19:49:32.260Z,15.89
2019-05-09T19:52:03.542Z,15.99
2019-05-09T19:54:33.188Z,16.05
2019-05-09T19:57:03.330Z,16.18
2019-05-09T19:59:33.113Z,16.17
2019-05-09T20:02:03.036Z,16.15
2019-05-09T20:04:33.001Z,16.09
2019-05-09T20:07:02.843Z,16.17
2019-05-09T20:09:42.738Z,16.16
2019-05-09T20:12:25.602Z,16.15
2019-05-09T20:14:55.550Z,16.02
2019-05-09T20:17:25.474Z,16.07
2019-05-09T20:19:55.174Z,16.20
2019-05-09T20:22:25.155Z,16.18
2019-05-09T20:24:54.906Z,16.16
2019-05-09T20:27:24.853Z,15.96
2019-05-09T20:29:54.790Z,15.99
2019-05-09T20:32:24.802Z,16.04
2019-05-09T20:34:54.678Z,16.18
2019-05-09T20:37:24.648Z,16.09
2019-05-09T20:39:54.577Z,16.11
2019-05-09T20:42:24.384Z,16.12
2019-05-09T20:44:54.429Z,16.10
2019-05-09T20:47:24.663Z,16.10
2019-05-09T20:49:54.659Z,16.08
2019-05-09T20:52:24.965Z,16.04
2019-05-09T20:54:54.806Z,16.04
2019-05-09T20:57:24.798Z,15.93
2019-05-09T20:59:54.683Z,15.96
2019-05-09T21:02:25.004Z,15.97
2019-05-09T21:04:55.018Z,15.93
2019-05-09T21:07:24.925Z,15.94
2019-05-09T21:09:54.998Z,15.87
2019-05-09T21:12:24.978Z,15.95
2019-05-09T21:14:54.905Z,15.91
2019-05-09T21:17:24.849Z,15.86
2019-05-09T21:19:54.725Z,15.88
2019-05-09T21:22:24.751Z,15.87
2019-05-09T21:24:54.896Z,15.91
2019-05-09T21:27:24.990Z,15.94
2019-05-09T21:29:55.012Z,15.98
2019-05-09T21:32:24.961Z,15.90
2019-05-09T21:34:54.689Z,15.74
2019-05-09T21:37:24.400Z,15.73
2019-05-09T21:39:54.187Z,15.69
2019-05-09T21:42:24.047Z,15.50
2019-05-09T21:44:53.818Z,15.38
2019-05-09T21:47:23.719Z,15.32
2019-05-09T21:49:53.627Z,15.23
2019-05-09T21:52:23.458Z,15.11
2019-05-09T21:54:53.152Z,14.96
2019-05-09T21:57:23.181Z,14.91
2019-05-09T21:59:53.006Z,14.99
2019-05-09T22:02:22.811Z,15.16
2019-05-09T22:04:52.874Z,15.12
2019-05-09T22:07:22.640Z,15.08
2019-05-09T22:09:52.562Z,15.07
2019-05-09T22:12:22.582Z,15.09
2019-05-09T22:14:52.294Z,14.93
2019-05-09T22:17:37.822Z,14.62
2019-05-09T22:20:09.195Z,14.31
2019-05-09T22:22:38.942Z,14.10
2019-05-09T22:25:10.853Z,13.88
2019-05-09T22:27:40.547Z,13.77
2019-05-09T22:30:11.815Z,13.71
2019-05-09T22:32:41.716Z,13.70
2019-05-09T22:35:12.509Z,13.65
2019-05-09T22:37:42.501Z,13.63
2019-05-09T22:40:13.877Z,13.55
2019-05-09T22:42:43.762Z,13.60
2019-05-09T22:45:13.631Z,13.68
2019-05-09T22:47:43.547Z,13.71
2019-05-09T22:50:13.496Z,13.65
2019-05-09T22:52:43.271Z,13.80
2019-05-09T22:55:13.577Z,13.81
2019-05-09T22:57:43.534Z,13.83
2019-05-09T23:00:14.935Z,13.84
2019-05-09T23:02:44.683Z,13.80
2019-05-09T23:05:15.236Z,13.78
2019-05-09T23:07:44.915Z,13.75
2019-05-09T23:10:14.754Z,13.72
2019-05-09T23:12:44.611Z,13.67
2019-05-09T23:15:16.228Z,13.71
2019-05-09T23:17:46.089Z,13.70
2019-05-09T23:20:34.626Z,13.69
2019-05-09T23:23:22.082Z,13.60
2019-05-09T23:25:51.975Z,13.64
2019-05-09T23:28:21.748Z,13.56
2019-05-09T23:30:53.290Z,13.58
2019-05-09T23:33:24.171Z,13.52
2019-05-09T23:35:53.942Z,13.56
2019-05-09T23:38:23.925Z,13.46
2019-05-09T23:40:53.779Z,13.45
2019-05-09T23:43:23.598Z,13.29
2019-05-09T23:45:53.637Z,13.25
2019-05-09T23:48:23.486Z,13.22
2019-05-09T23:50:53.456Z,13.26
2019-05-09T23:53:35.957Z,13.16
2019-05-09T23:56:24.938Z,13.14
2019-05-09T23:59:12.556Z,13.12
